Terminal Aerodrome Forecast
Issued by NWS Hastings, NE

Home | Current Version | Previous Version | Text Only | Print | Product List | Glossary On
Versions: 1 2 3 4 5 6 7 8 9 10 11 12 13 14 15 16
672
FTUS45 KGID 080525
TAFEAR
TAF
KEAR 080525Z 0806/0906 31022G31KT P6SM SCT060
     FM080700 31022G31KT P6SM SCT060 WS020/33050KT
     FM081100 32023G32KT P6SM SCT060
     FM090000 33016KT P6SM SCT250
      AMD LTD TO CLD VIS AND WIND=

USA.gov is the U.S. government's official web portal to all federal, state and local government web resources and services.